createdAt,value
2018-01-20T00:00:33.586Z,93.13
2018-01-20T00:02:04.752Z,93.12
2018-01-20T00:03:28.033Z,93.00
2018-01-20T00:04:55.129Z,92.88
2018-01-20T00:06:22.314Z,92.96
2018-01-20T00:07:49.641Z,92.82
2018-01-20T00:09:20.922Z,92.79
2018-01-20T00:10:43.953Z,92.74
2018-01-20T00:12:11.209Z,92.79
2018-01-20T00:13:38.291Z,92.86
2018-01-20T00:15:09.312Z,92.68
2018-01-20T00:16:36.396Z,92.74
2018-01-20T00:17:59.498Z,92.70
2018-01-20T00:19:26.786Z,92.74
2018-01-20T00:20:57.820Z,92.71
2018-01-20T00:22:21.098Z,92.75
2018-01-20T00:23:52.305Z,92.75
2018-01-20T00:25:19.437Z,92.62
2018-01-20T00:26:42.808Z,92.64
2018-01-20T00:28:09.912Z,92.64
2018-01-20T00:29:40.956Z,92.55
2018-01-20T00:31:04.106Z,92.48
2018-01-20T00:32:35.396Z,92.42
2018-01-20T00:34:02.425Z,92.47
2018-01-20T00:35:29.738Z,92.46
2018-01-20T00:36:56.887Z,92.35
2018-01-20T00:38:23.972Z,92.45
2018-01-20T00:39:47.221Z,92.39
2018-01-20T00:41:14.485Z,92.43
2018-01-20T00:42:41.638Z,92.39
2018-01-20T00:44:12.850Z,92.33
2018-01-20T00:45:36.078Z,92.28
2018-01-20T00:47:07.069Z,92.26
2018-01-20T00:48:30.126Z,92.31
2018-01-20T00:49:57.308Z,92.39
2018-01-20T00:51:28.336Z,92.24
2018-01-20T00:52:51.450Z,92.26
2018-01-20T00:54:18.746Z,92.19
2018-01-20T00:55:46.028Z,92.06
2018-01-20T00:57:13.196Z,92.08
2018-01-20T00:58:43.985Z,92.09
2018-01-20T01:00:11.262Z,92.06
2018-01-20T01:01:34.413Z,92.11
2018-01-20T01:03:01.523Z,92.03
2018-01-20T01:04:28.835Z,92.06
2018-01-20T01:05:56.065Z,92.06
2018-01-20T01:07:23.068Z,92.04
2018-01-20T01:08:50.255Z,92.09
2018-01-20T01:10:17.461Z,92.05
2018-01-20T01:11:48.619Z,92.00
2018-01-20T01:13:11.967Z,91.95
2018-01-20T01:14:38.823Z,91.96
2018-01-20T01:16:09.916Z,91.97
2018-01-20T01:17:33.349Z,91.90
2018-01-20T01:19:00.286Z,91.86
2018-01-20T01:20:27.549Z,91.87
2018-01-20T01:21:58.593Z,91.79
2018-01-20T01:23:25.851Z,91.69
2018-01-20T01:24:53.078Z,91.81
2018-01-20T01:26:20.126Z,91.80
2018-01-20T01:27:43.294Z,91.81
2018-01-20T01:29:14.361Z,91.84
2018-01-20T01:30:37.319Z,91.78
2018-01-20T01:32:08.348Z,91.73
2018-01-20T01:33:31.312Z,91.66
2018-01-20T01:35:02.389Z,91.72
2018-01-20T01:36:25.490Z,91.67
2018-01-20T01:37:56.723Z,91.66
2018-01-20T01:39:19.739Z,91.74
2018-01-20T01:40:51.124Z,91.73
2018-01-20T01:42:17.951Z,91.74
2018-01-20T01:43:45.190Z,91.71
2018-01-20T01:45:08.409Z,91.71
2018-01-20T01:46:39.445Z,91.71
2018-01-20T01:48:02.704Z,91.70
2018-01-20T01:49:33.724Z,91.66
2018-01-20T01:50:56.910Z,91.40
2018-01-20T01:52:24.070Z,91.41
2018-01-20T01:53:51.027Z,91.41
2018-01-20T01:55:22.269Z,91.24
2018-01-20T01:56:45.332Z,91.40
2018-01-20T01:58:12.542Z,91.47
2018-01-20T01:59:43.894Z,91.66
2018-01-20T02:01:11.019Z,91.63
2018-01-20T02:02:34.300Z,91.59
2018-01-20T02:04:01.496Z,91.67
2018-01-20T02:05:28.623Z,91.71
2018-01-20T02:06:55.836Z,91.60
2018-01-20T02:08:22.898Z,91.29
2018-01-20T02:09:54.150Z,91.81
2018-01-20T02:11:21.404Z,91.95
2018-01-20T02:12:44.801Z,91.89
2018-01-20T02:14:11.925Z,91.93
2018-01-20T02:15:43.076Z,91.90
2018-01-20T02:17:06.399Z,92.03
2018-01-20T02:18:33.404Z,92.01
2018-01-20T02:20:00.643Z,91.88
2018-01-20T02:21:31.761Z,92.09
2018-01-20T02:22:54.881Z,91.77
2018-01-20T02:24:22.139Z,92.36
2018-01-20T02:25:49.423Z,92.42
2018-01-20T02:27:23.372Z,92.36
2018-01-20T02:28:47.612Z,92.20
2018-01-20T02:30:10.863Z,92.17
2018-01-20T02:31:38.066Z,91.79
2018-01-20T02:33:05.085Z,91.70
2018-01-20T02:34:32.282Z,91.41
2018-01-20T02:35:58.927Z,91.20
2018-01-20T02:37:26.128Z,91.10
2018-01-20T02:38:52.927Z,91.03
2018-01-20T02:40:20.155Z,90.90
2018-01-20T02:41:47.207Z,90.78
2018-01-20T02:43:18.401Z,90.67
2018-01-20T02:44:41.676Z,90.60
2018-01-20T02:46:12.954Z,90.64
2018-01-20T02:47:36.285Z,90.56
2018-01-20T02:49:03.411Z,90.45
2018-01-20T02:50:34.463Z,90.48
2018-01-20T02:51:57.630Z,90.29
2018-01-20T02:53:28.628Z,90.38
2018-01-20T02:54:52.048Z,90.22
2018-01-20T02:56:23.096Z,90.70
2018-01-20T02:57:50.315Z,90.75
2018-01-20T02:59:17.506Z,90.66
2018-01-20T03:00:44.648Z,91.16
2018-01-20T03:02:11.687Z,91.06
2018-01-20T03:03:38.906Z,90.62
2018-01-20T03:05:02.212Z,90.53
2018-01-20T03:06:29.200Z,90.84
2018-01-20T03:07:56.307Z,91.22
2018-01-20T03:09:27.133Z,91.21
2018-01-20T03:10:54.324Z,91.61
2018-01-20T03:12:17.661Z,91.53
2018-01-20T03:13:48.833Z,91.25
2018-01-20T03:15:12.029Z,90.82
2018-01-20T03:16:43.209Z,91.34
2018-01-20T03:18:10.217Z,91.50
2018-01-20T03:19:33.501Z,91.16
2018-01-20T03:21:00.729Z,91.28
2018-01-20T03:22:27.792Z,90.95
2018-01-20T03:23:58.880Z,90.87
2018-01-20T03:25:22.157Z,90.71
2018-01-20T03:26:49.368Z,90.58
2018-01-20T03:28:16.596Z,90.47
2018-01-20T03:29:47.886Z,90.37
2018-01-20T03:31:11.093Z,90.25
2018-01-20T03:32:42.308Z,90.17
2018-01-20T03:34:05.576Z,90.30
2018-01-20T03:35:32.715Z,89.95
2018-01-20T03:36:59.648Z,90.19
2018-01-20T03:38:26.814Z,90.22
2018-01-20T03:39:53.616Z,90.15
2018-01-20T03:41:20.640Z,90.07
2018-01-20T03:42:47.972Z,90.27
2018-01-20T03:44:15.009Z,90.35
2018-01-20T03:45:42.117Z,90.26
2018-01-20T03:47:09.165Z,90.23
2018-01-20T03:48:39.941Z,90.14
2018-01-20T03:50:06.815Z,90.13
2018-01-20T03:51:30.187Z,90.11
2018-01-20T03:52:57.254Z,90.17
2018-01-20T03:54:24.279Z,90.12
2018-01-20T03:55:55.518Z,90.02
2018-01-20T03:57:22.696Z,90.11
2018-01-20T03:58:49.804Z,90.04
2018-01-20T04:00:16.999Z,89.90
2018-01-20T04:01:39.826Z,89.95
2018-01-20T04:03:11.111Z,89.87
2018-01-20T04:04:38.299Z,90.04
2018-01-20T04:06:01.565Z,90.22
2018-01-20T04:07:32.703Z,89.95
2018-01-20T04:08:55.700Z,90.21
2018-01-20T04:10:26.723Z,90.00
2018-01-20T04:11:50.010Z,89.93
2018-01-20T04:13:21.415Z,89.98
2018-01-20T04:14:48.582Z,89.88
2018-01-20T04:16:11.889Z,89.81
2018-01-20T04:17:39.161Z,89.85
2018-01-20T04:19:06.291Z,90.28
2018-01-20T04:20:37.579Z,90.12
2018-01-20T04:22:00.826Z,90.45
2018-01-20T04:23:31.619Z,90.69
2018-01-20T04:24:58.633Z,91.14
2018-01-20T04:26:25.955Z,91.09
2018-01-20T04:27:53.039Z,91.40
2018-01-20T04:29:16.169Z,91.15
2018-01-20T04:30:47.306Z,91.03
2018-01-20T04:32:14.643Z,90.69
2018-01-20T04:33:37.812Z,90.69
2018-01-20T04:35:05.036Z,90.76
2018-01-20T04:36:36.151Z,90.63
2018-01-20T04:38:03.404Z,90.08
2018-01-20T04:39:26.493Z,90.28
2018-01-20T04:40:53.373Z,90.26
2018-01-20T04:42:20.301Z,90.16
2018-01-20T04:43:47.490Z,90.23
2018-01-20T04:45:14.451Z,89.92
2018-01-20T04:46:41.772Z,89.96
2018-01-20T04:48:12.896Z,90.07
2018-01-20T04:49:40.003Z,90.08
2018-01-20T04:51:06.943Z,89.93
2018-01-20T04:52:30.009Z,89.95
2018-01-20T04:53:57.129Z,89.64
2018-01-20T04:55:24.334Z,89.33
2018-01-20T04:56:51.479Z,89.36
2018-01-20T04:58:22.651Z,89.45
2018-01-20T04:59:45.859Z,89.31
2018-01-20T05:01:16.930Z,89.21
2018-01-20T05:02:40.330Z,89.08
2018-01-20T05:04:11.265Z,88.90
2018-01-20T05:05:38.603Z,89.10
2018-01-20T05:07:01.759Z,89.11
2018-01-20T05:08:33.033Z,88.98
2018-01-20T05:09:56.075Z,88.92
2018-01-20T05:11:27.265Z,88.85
2018-01-20T05:12:50.505Z,88.47
2018-01-20T05:14:21.540Z,88.31
2018-01-20T05:15:48.543Z,88.28
2018-01-20T05:17:15.766Z,88.28
2018-01-20T05:18:42.988Z,88.31
2018-01-20T05:20:10.159Z,88.26
2018-01-20T05:21:37.228Z,88.28
2018-01-20T05:23:00.445Z,88.37
2018-01-20T05:24:31.580Z,88.37
2018-01-20T05:25:54.770Z,88.45
2018-01-20T05:27:22.099Z,88.55
2018-01-20T05:28:49.135Z,88.46
2018-01-20T05:30:16.214Z,88.51
2018-01-20T05:31:47.408Z,88.48
2018-01-20T05:33:10.637Z,88.67
2018-01-20T05:34:37.881Z,88.59
2018-01-20T05:36:05.004Z,88.55
2018-01-20T05:37:36.189Z,88.82
2018-01-20T05:38:59.300Z,88.90
2018-01-20T05:40:26.321Z,88.85
2018-01-20T05:41:53.226Z,88.89
2018-01-20T05:43:24.393Z,88.97
2018-01-20T05:44:47.564Z,89.16
2018-01-20T05:46:18.659Z,89.29
2018-01-20T05:47:45.860Z,89.25
2018-01-20T05:49:13.096Z,89.24
2018-01-20T05:50:36.137Z,89.49
2018-01-20T05:52:03.414Z,89.69
2018-01-20T05:53:30.544Z,89.90
2018-01-20T05:54:57.551Z,89.98
2018-01-20T05:56:28.636Z,90.06
2018-01-20T05:57:51.818Z,90.10
2018-01-20T05:59:19.134Z,90.08
2018-01-20T06:00:50.290Z,90.20
2018-01-20T06:02:17.500Z,90.23
2018-01-20T06:03:40.726Z,90.35
2018-01-20T06:05:07.812Z,90.35
2018-01-20T06:06:39.124Z,90.37
2018-01-20T06:08:06.190Z,90.38
2018-01-20T06:09:29.420Z,90.27
2018-01-20T06:10:56.451Z,90.19
2018-01-20T06:12:23.554Z,90.15
2018-01-20T06:13:50.532Z,90.10
2018-01-20T06:15:21.430Z,90.02
2018-01-20T06:16:48.506Z,89.95
2018-01-20T06:18:11.755Z,89.92
2018-01-20T06:19:38.953Z,89.73
2018-01-20T06:21:09.935Z,89.71
2018-01-20T06:22:32.454Z,89.53
2018-01-20T06:24:03.482Z,89.59
2018-01-20T06:25:26.515Z,89.83
2018-01-20T06:26:53.454Z,89.72
2018-01-20T06:28:24.627Z,89.81
2018-01-20T06:29:47.651Z,89.64
2018-01-20T06:31:14.843Z,89.52
2018-01-20T06:32:42.061Z,89.49
2018-01-20T06:34:09.222Z,89.72
2018-01-20T06:35:36.501Z,89.73
2018-01-20T06:37:07.405Z,89.79
2018-01-20T06:38:34.376Z,89.91
2018-01-20T06:39:57.622Z,89.92
2018-01-20T06:41:24.708Z,90.05
2018-01-20T06:42:55.893Z,89.92
2018-01-20T06:44:19.174Z,89.96
2018-01-20T06:45:46.403Z,89.92
2018-01-20T06:47:13.775Z,89.74
2018-01-20T06:48:40.962Z,89.67
2018-01-20T06:50:08.096Z,89.56
2018-01-20T06:51:35.367Z,89.53
2018-01-20T06:53:02.591Z,89.44
2018-01-20T06:54:33.775Z,89.54
2018-01-20T06:55:56.901Z,89.53
2018-01-20T06:57:23.861Z,89.56
2018-01-20T06:58:50.942Z,89.51
2018-01-20T07:00:18.211Z,89.56
2018-01-20T07:01:49.354Z,89.68
2018-01-20T07:03:12.459Z,89.50
2018-01-20T07:04:43.736Z,89.50
2018-01-20T07:06:06.908Z,89.51
2018-01-20T07:07:33.795Z,89.42
2018-01-20T07:09:04.991Z,89.46
2018-01-20T07:10:31.940Z,89.49
2018-01-20T07:11:54.896Z,89.34
2018-01-20T07:13:22.292Z,89.43
2018-01-20T07:14:49.290Z,89.35
2018-01-20T07:16:20.481Z,89.38
2018-01-20T07:17:47.684Z,89.41
2018-01-20T07:19:14.648Z,89.34
2018-01-20T07:20:37.749Z,89.36
2018-01-20T07:22:08.851Z,89.50
2018-01-20T07:23:35.823Z,89.52
2018-01-20T07:25:03.150Z,89.40
2018-01-20T07:26:26.268Z,89.39
2018-01-20T07:27:53.347Z,89.28
2018-01-20T07:29:20.779Z,89.29
2018-01-20T07:30:51.810Z,89.33
2018-01-20T07:32:18.886Z,89.27
2018-01-20T07:33:46.261Z,89.27
2018-01-20T07:35:09.564Z,89.30
2018-01-20T07:36:40.668Z,89.40
2018-01-20T07:38:07.782Z,89.47
2018-01-20T07:39:31.088Z,89.53
2018-01-20T07:40:58.096Z,90.01
2018-01-20T07:42:25.289Z,89.94
2018-01-20T07:43:52.370Z,89.78
2018-01-20T07:45:23.686Z,89.51
2018-01-20T07:46:46.321Z,89.24
2018-01-20T07:48:13.529Z,89.19
2018-01-20T07:49:44.558Z,89.20
2018-01-20T07:51:11.612Z,89.20
2018-01-20T07:52:34.955Z,89.08
2018-01-20T07:54:01.980Z,89.29
2018-01-20T07:55:33.016Z,89.30
2018-01-20T07:56:56.288Z,89.35
2018-01-20T07:58:27.237Z,89.39
2018-01-20T07:59:54.545Z,89.46
2018-01-20T08:01:17.812Z,89.46
2018-01-20T08:02:48.844Z,89.56
2018-01-20T08:04:12.099Z,89.68
2018-01-20T08:05:43.354Z,89.63
2018-01-20T08:07:10.690Z,89.59
2018-01-20T08:08:37.921Z,89.60
2018-01-20T08:10:00.977Z,89.62
2018-01-20T08:11:32.176Z,89.63
2018-01-20T08:12:55.305Z,89.45
2018-01-20T08:14:22.435Z,89.46
2018-01-20T08:15:53.649Z,89.57
2018-01-20T08:17:16.858Z,89.45
2018-01-20T08:18:43.957Z,89.59
2018-01-20T08:20:15.245Z,89.59
2018-01-20T08:21:38.645Z,89.39
2018-01-20T08:23:05.622Z,89.38
2018-01-20T08:24:32.812Z,89.45
2018-01-20T08:26:03.986Z,89.66
2018-01-20T08:27:27.199Z,89.71
2018-01-20T08:28:54.351Z,89.51
2018-01-20T08:30:21.882Z,89.51
2018-01-20T08:31:53.028Z,89.56
2018-01-20T08:33:16.229Z,89.52
2018-01-20T08:34:47.302Z,89.40
2018-01-20T08:36:10.689Z,89.29
2018-01-20T08:37:42.009Z,89.35
2018-01-20T08:39:04.920Z,89.42
2018-01-20T08:40:32.180Z,89.40
2018-01-20T08:42:03.313Z,89.19
2018-01-20T08:43:26.631Z,89.29
2018-01-20T08:44:57.663Z,89.29
2018-01-20T08:46:24.854Z,88.79
2018-01-20T08:47:47.388Z,88.91
2018-01-20T08:49:19.592Z,89.04
2018-01-20T08:50:45.842Z,89.03
2018-01-20T08:52:09.221Z,89.09
2018-01-20T08:53:40.495Z,88.57
2018-01-20T08:55:03.462Z,88.30
2018-01-20T08:56:34.567Z,88.21
2018-01-20T08:57:57.637Z,88.24
2018-01-20T08:59:24.773Z,88.28
2018-01-20T09:00:56.054Z,88.54
2018-01-20T09:02:19.421Z,88.57
2018-01-20T09:03:50.603Z,88.58
2018-01-20T09:05:17.720Z,88.52
2018-01-20T09:06:40.944Z,88.51
2018-01-20T09:08:12.101Z,88.36
2018-01-20T09:09:39.590Z,88.34
2018-01-20T09:11:06.395Z,88.35
2018-01-20T09:12:33.624Z,88.37
2018-01-20T09:14:00.298Z,88.22
2018-01-20T09:15:27.341Z,88.23
2018-01-20T09:16:54.251Z,88.20
2018-01-20T09:18:21.522Z,88.27
2018-01-20T09:19:48.742Z,88.34
2018-01-20T09:21:11.836Z,88.43
2018-01-20T09:22:39.071Z,88.40
2018-01-20T09:24:05.876Z,88.15
2018-01-20T09:25:36.987Z,88.02
2018-01-20T09:27:00.264Z,88.19
2018-01-20T09:28:31.333Z,88.14
2018-01-20T09:29:54.492Z,88.02
2018-01-20T09:31:21.490Z,88.09
2018-01-20T09:32:52.699Z,87.94
2018-01-20T09:34:19.745Z,88.03
2018-01-20T09:35:42.847Z,88.17
2018-01-20T09:37:10.170Z,88.25
2018-01-20T09:38:37.435Z,88.06
2018-01-20T09:40:04.727Z,88.02
2018-01-20T09:41:35.333Z,87.91
2018-01-20T09:42:58.527Z,87.85
2018-01-20T09:44:25.699Z,87.79
2018-01-20T09:45:52.976Z,87.75
2018-01-20T09:47:19.808Z,87.93
2018-01-20T09:48:47.046Z,87.93
2018-01-20T09:50:18.258Z,87.87
2018-01-20T09:51:41.584Z,87.97
2018-01-20T09:53:08.011Z,87.98
2018-01-20T09:54:39.006Z,87.97
2018-01-20T09:56:06.041Z,88.00
2018-01-20T09:57:33.084Z,87.96
2018-01-20T09:58:56.314Z,87.92
2018-01-20T10:00:27.205Z,87.87
2018-01-20T10:01:54.403Z,87.80
2018-01-20T10:03:16.962Z,87.88
2018-01-20T10:04:48.110Z,87.87
2018-01-20T10:06:11.458Z,87.98
2018-01-20T10:07:38.766Z,88.26
2018-01-20T10:09:09.930Z,88.24
2018-01-20T10:10:33.182Z,88.27
2018-01-20T10:12:00.393Z,88.23
2018-01-20T10:13:27.527Z,88.09
2018-01-20T10:14:58.278Z,87.89
2018-01-20T10:16:25.657Z,87.97
2018-01-20T10:17:48.866Z,87.94
2018-01-20T10:19:20.143Z,88.07
2018-01-20T10:20:43.383Z,87.95
2018-01-20T10:22:14.459Z,88.03
2018-01-20T10:23:41.453Z,88.09
2018-01-20T10:25:04.651Z,88.00
2018-01-20T10:26:35.804Z,87.95
2018-01-20T10:27:59.066Z,87.82
2018-01-20T10:29:25.815Z,87.64
2018-01-20T10:30:57.057Z,87.58
2018-01-20T10:32:20.276Z,87.86
2018-01-20T10:33:47.566Z,87.55
2018-01-20T10:35:14.514Z,87.66
2018-01-20T10:36:44.896Z,87.64
2018-01-20T10:38:11.927Z,87.94
2018-01-20T10:39:39.062Z,87.80
2018-01-20T10:41:02.296Z,87.85
2018-01-20T10:42:29.309Z,87.95
2018-01-20T10:43:56.267Z,87.75
2018-01-20T10:45:27.176Z,87.95
2018-01-20T10:46:54.271Z,87.95
2018-01-20T10:48:17.504Z,87.70
2018-01-20T10:49:48.826Z,87.84
2018-01-20T10:51:12.081Z,87.94
2018-01-20T10:52:39.153Z,87.83
2018-01-20T10:54:06.387Z,87.64
2018-01-20T10:55:33.703Z,87.72
2018-01-20T10:57:00.799Z,87.74
2018-01-20T10:58:31.603Z,87.79
2018-01-20T10:59:58.428Z,87.54
2018-01-20T11:01:21.691Z,87.69
2018-01-20T11:02:48.887Z,87.70
2018-01-20T11:04:16.057Z,87.62
2018-01-20T11:05:47.329Z,87.46
2018-01-20T11:07:10.604Z,87.57
2018-01-20T11:08:41.693Z,87.58
2018-01-20T11:10:05.023Z,87.54
2018-01-20T11:11:36.042Z,87.66
2018-01-20T11:13:03.392Z,87.78
2018-01-20T11:14:30.178Z,88.00
2018-01-20T11:15:57.281Z,87.91
2018-01-20T11:17:20.177Z,88.05
2018-01-20T11:18:50.877Z,88.01
2018-01-20T11:20:14.121Z,87.92
2018-01-20T11:21:45.390Z,87.99
2018-01-20T11:23:12.513Z,87.94
2018-01-20T11:24:39.794Z,87.73
2018-01-20T11:26:06.963Z,87.67
2018-01-20T11:27:29.711Z,87.84
2018-01-20T11:28:56.554Z,87.56
2018-01-20T11:30:23.640Z,87.41
2018-01-20T11:31:50.598Z,87.26
2018-01-20T11:33:17.824Z,87.25
2018-01-20T11:34:48.975Z,87.29
2018-01-20T11:36:16.350Z,87.45
2018-01-20T11:37:43.426Z,87.71
2018-01-20T11:39:06.645Z,87.75
2018-01-20T11:40:37.980Z,87.71
2018-01-20T11:42:00.561Z,87.80
2018-01-20T11:43:27.744Z,87.71
2018-01-20T11:44:54.856Z,87.66
2018-01-20T11:46:26.191Z,87.14
2018-01-20T11:47:49.592Z,87.42
2018-01-20T11:49:16.624Z,87.16
2018-01-20T11:50:43.680Z,87.36
2018-01-20T11:52:14.483Z,87.15
2018-01-20T11:53:41.665Z,87.19
2018-01-20T11:55:04.664Z,87.07
2018-01-20T11:56:36.010Z,86.93
2018-01-20T11:57:58.379Z,86.81
2018-01-20T11:59:29.487Z,86.81
2018-01-20T12:00:56.791Z,86.98
2018-01-20T12:02:20.159Z,86.90
2018-01-20T12:03:47.370Z,86.84
2018-01-20T12:05:19.686Z,86.79
2018-01-20T12:06:45.169Z,86.87
2018-01-20T12:08:08.486Z,86.97
2018-01-20T12:09:35.195Z,86.91
2018-01-20T12:11:06.182Z,86.99
2018-01-20T12:12:29.394Z,86.95
2018-01-20T12:13:56.523Z,86.89
2018-01-20T12:15:23.525Z,86.69
2018-01-20T12:16:54.754Z,86.53
2018-01-20T12:18:21.592Z,86.71
2018-01-20T12:19:48.707Z,86.62
2018-01-20T12:21:11.890Z,86.63
2018-01-20T12:22:43.192Z,87.03
2018-01-20T12:24:10.414Z,87.38
2018-01-20T12:25:33.529Z,87.25
2018-01-20T12:27:03.853Z,87.34
2018-01-20T12:28:31.066Z,87.08
2018-01-20T12:29:57.734Z,86.94
2018-01-20T12:31:20.832Z,86.82
2018-01-20T12:32:47.659Z,86.61
2018-01-20T12:34:14.796Z,86.68
2018-01-20T12:35:45.983Z,86.71
2018-01-20T12:37:12.980Z,86.77
2018-01-20T12:38:36.266Z,86.72
2018-01-20T12:40:07.476Z,86.85
2018-01-20T12:41:34.732Z,86.80
2018-01-20T12:43:01.953Z,87.17
2018-01-20T12:44:24.995Z,87.15
2018-01-20T12:45:52.067Z,87.33
2018-01-20T12:47:23.286Z,87.30
2018-01-20T12:48:46.437Z,87.56
2018-01-20T12:50:17.582Z,87.49
2018-01-20T12:51:40.784Z,87.00
2018-01-20T12:53:11.924Z,86.97
2018-01-20T12:54:34.857Z,87.06
2018-01-20T12:56:01.852Z,86.92
2018-01-20T12:57:29.014Z,87.00
2018-01-20T12:59:00.259Z,87.05
2018-01-20T13:00:23.075Z,87.27
2018-01-20T13:01:49.990Z,87.16
2018-01-20T13:03:21.421Z,87.06
2018-01-20T13:04:48.542Z,86.99
2018-01-20T13:06:15.857Z,87.00
2018-01-20T13:07:39.007Z,87.00
2018-01-20T13:09:10.227Z,86.90
2018-01-20T13:10:33.478Z,86.65
2018-01-20T13:12:00.467Z,86.72
2018-01-20T13:13:27.533Z,86.80
2018-01-20T13:14:54.527Z,86.79
2018-01-20T13:16:25.471Z,86.75
2018-01-20T13:17:52.743Z,86.73
2018-01-20T13:19:15.974Z,86.89
2018-01-20T13:20:47.191Z,87.06
2018-01-20T13:22:10.566Z,86.99
2018-01-20T13:23:41.793Z,86.95
2018-01-20T13:25:04.971Z,87.09
2018-01-20T13:26:32.375Z,86.97
2018-01-20T13:27:59.479Z,86.95
2018-01-20T13:29:26.644Z,86.92
2018-01-20T13:30:53.633Z,86.87
2018-01-20T13:32:20.961Z,86.97
2018-01-20T13:33:48.104Z,87.07
2018-01-20T13:35:19.274Z,87.11
2018-01-20T13:36:46.457Z,87.05
2018-01-20T13:38:09.604Z,86.81
2018-01-20T13:39:36.858Z,86.83
2018-01-20T13:41:03.563Z,86.92
2018-01-20T13:42:30.704Z,87.07
2018-01-20T13:43:57.816Z,87.04
2018-01-20T13:45:28.664Z,86.99
2018-01-20T13:46:51.951Z,86.69
2018-01-20T13:48:23.227Z,86.80
2018-01-20T13:49:50.543Z,87.12
2018-01-20T13:51:17.867Z,87.22
2018-01-20T13:52:40.963Z,87.23
2018-01-20T13:54:08.331Z,87.30
2018-01-20T13:55:39.496Z,87.45
2018-01-20T13:57:06.654Z,87.58
2018-01-20T13:58:33.857Z,87.50
2018-01-20T14:00:00.844Z,87.47
2018-01-20T14:01:23.854Z,87.65
2018-01-20T14:02:51.132Z,87.84
2018-01-20T14:04:18.300Z,87.86
2018-01-20T14:05:49.469Z,87.99
2018-01-20T14:07:12.570Z,88.10
2018-01-20T14:08:39.948Z,87.88
2018-01-20T14:10:07.126Z,87.95
2018-01-20T14:11:34.246Z,87.93
2018-01-20T14:13:05.487Z,88.04
2018-01-20T14:14:32.416Z,88.05
2018-01-20T14:15:59.413Z,88.06
2018-01-20T14:17:22.480Z,88.04
2018-01-20T14:18:49.651Z,88.08
2018-01-20T14:20:16.851Z,88.04
2018-01-20T14:21:48.063Z,88.05
2018-01-20T14:24:42.305Z,88.04
2018-01-20T14:26:09.140Z,87.83
2018-01-20T14:27:35.792Z,87.88
2018-01-20T14:28:58.956Z,88.01
2018-01-20T14:30:30.139Z,87.95
2018-01-20T14:31:57.278Z,87.97
2018-01-20T14:33:20.660Z,88.02
2018-01-20T14:34:51.975Z,88.11
2018-01-20T14:36:14.974Z,88.19
2018-01-20T14:37:46.092Z,88.15
2018-01-20T14:39:09.392Z,88.30
2018-01-20T14:40:36.728Z,88.30
2018-01-20T14:42:07.967Z,88.35
2018-01-20T14:43:31.162Z,88.35
2018-01-20T14:45:02.360Z,88.13
2018-01-20T14:46:25.569Z,88.04
2018-01-20T14:47:52.787Z,88.12
2018-01-20T14:49:19.954Z,88.14
2018-01-20T14:50:47.171Z,88.06
2018-01-20T14:52:18.418Z,87.95
2018-01-20T14:53:41.751Z,87.96
2018-01-20T14:55:12.844Z,88.11
2018-01-20T14:56:40.099Z,88.24
2018-01-20T14:58:03.202Z,88.33
2018-01-20T14:59:30.367Z,88.47
2018-01-20T15:00:57.591Z,88.40
2018-01-20T15:02:24.777Z,88.44
2018-01-20T15:03:51.946Z,88.35
2018-01-20T15:05:19.264Z,88.27
2018-01-20T15:06:50.545Z,88.23
2018-01-20T15:08:17.562Z,88.32
2018-01-20T15:09:40.817Z,88.29
2018-01-20T15:11:12.042Z,88.38
2018-01-20T15:12:35.100Z,88.68
2018-01-20T15:14:06.325Z,88.77
2018-01-20T15:15:29.601Z,88.65
2018-01-20T15:16:56.713Z,88.60
2018-01-20T15:18:23.812Z,88.66
2018-01-20T15:19:51.060Z,88.62
2018-01-20T15:21:18.296Z,88.72
2018-01-20T15:22:45.486Z,88.56
2018-01-20T15:24:12.512Z,88.56
2018-01-20T15:25:39.788Z,88.77
2018-01-20T15:27:07.049Z,88.64
2018-01-20T15:28:34.432Z,88.70
2018-01-20T15:30:05.652Z,88.69
2018-01-20T15:31:28.568Z,88.73
2018-01-20T15:32:55.669Z,88.89
2018-01-20T15:34:22.793Z,88.89
2018-01-20T15:35:50.035Z,88.99
2018-01-20T15:37:17.190Z,88.99
2018-01-20T15:38:44.482Z,89.02
2018-01-20T15:40:11.630Z,88.95
2018-01-20T15:41:42.609Z,88.91
2018-01-20T15:43:05.757Z,89.00
2018-01-20T15:44:32.998Z,88.83
2018-01-20T15:46:00.077Z,88.86
2018-01-20T15:47:31.099Z,88.84
2018-01-20T15:48:58.086Z,88.86
2018-01-20T15:50:25.070Z,88.97
2018-01-20T15:51:52.580Z,88.87
2018-01-20T15:53:15.656Z,88.78
2018-01-20T15:54:46.929Z,88.76
2018-01-20T15:56:10.320Z,88.65
2018-01-20T15:57:37.551Z,88.70
2018-01-20T15:59:04.754Z,88.54
2018-01-20T16:00:31.773Z,88.02
2018-01-20T16:01:59.089Z,88.03
2018-01-20T16:03:26.180Z,87.70
2018-01-20T16:04:53.484Z,87.91
2018-01-20T16:06:20.655Z,88.07
2018-01-20T16:07:51.523Z,88.17
2018-01-20T16:09:18.873Z,88.29
2018-01-20T16:10:46.035Z,88.36
2018-01-20T16:12:08.907Z,88.42
2018-01-20T16:13:36.030Z,88.56
2018-01-20T16:15:07.346Z,88.57
2018-01-20T16:16:30.121Z,88.66
2018-01-20T16:17:57.392Z,88.80
2018-01-20T16:19:28.721Z,88.74
2018-01-20T16:20:55.786Z,88.65
2018-01-20T16:22:22.519Z,88.74
2018-01-20T16:23:45.662Z,88.69
2018-01-20T16:25:16.587Z,88.76
2018-01-20T16:26:43.876Z,88.81
2018-01-20T16:28:11.078Z,88.74
2018-01-20T16:29:34.286Z,88.61
2018-01-20T16:31:05.032Z,88.73
2018-01-20T16:32:32.153Z,88.65
2018-01-20T16:33:55.091Z,88.58
2018-01-20T16:35:26.128Z,88.66
2018-01-20T16:36:49.392Z,88.72
2018-01-20T16:38:20.686Z,88.96
2018-01-20T16:39:47.833Z,89.09
2018-01-20T16:41:14.951Z,89.31
2018-01-20T16:42:37.943Z,89.41
2018-01-20T16:44:05.151Z,89.51
2018-01-20T16:45:32.025Z,89.30
2018-01-20T16:46:58.757Z,89.28
2018-01-20T16:48:26.006Z,89.26
2018-01-20T16:49:53.254Z,89.22
2018-01-20T16:51:24.517Z,89.06
2018-01-20T16:52:47.562Z,88.89
2018-01-20T16:54:18.652Z,88.87
2018-01-20T16:55:41.943Z,89.04
2018-01-20T16:57:12.808Z,89.08
2018-01-20T16:58:35.918Z,89.02
2018-01-20T17:00:07.151Z,89.29
2018-01-20T17:01:29.984Z,89.10
2018-01-20T17:02:57.054Z,89.07
2018-01-20T17:04:24.148Z,88.99
2018-01-20T17:05:51.339Z,89.25
2018-01-20T17:07:22.612Z,89.24
2018-01-20T17:08:45.788Z,89.26
2018-01-20T17:10:16.918Z,89.25
2018-01-20T17:11:44.180Z,89.19
2018-01-20T17:13:10.870Z,89.10
2018-01-20T17:14:38.055Z,89.04
2018-01-20T17:16:01.139Z,89.15
2018-01-20T17:17:32.237Z,89.22
2018-01-20T17:18:55.417Z,89.21
2018-01-20T17:20:22.466Z,89.07
2018-01-20T17:21:53.621Z,89.26
2018-01-20T17:23:16.525Z,89.45
2018-01-20T17:24:43.870Z,89.80
2018-01-20T17:26:14.983Z,89.53
2018-01-20T17:27:38.265Z,89.91
2018-01-20T17:29:05.526Z,90.57
2018-01-20T17:30:32.676Z,90.61
2018-01-20T17:32:03.718Z,90.59
2018-01-20T17:33:30.605Z,90.45
2018-01-20T17:34:53.794Z,90.49
2018-01-20T17:36:21.074Z,90.35
2018-01-20T17:37:48.181Z,90.37
2018-01-20T17:39:15.184Z,90.32
2018-01-20T17:40:46.353Z,90.27
2018-01-20T17:42:13.565Z,90.22
2018-01-20T17:43:36.940Z,90.35
2018-01-20T17:45:04.072Z,90.54
2018-01-20T17:46:31.194Z,90.72
2018-01-20T17:48:02.339Z,90.79
2018-01-20T17:49:25.406Z,90.93
2018-01-20T17:50:52.835Z,91.01
2018-01-20T17:52:20.099Z,91.11
2018-01-20T17:53:51.353Z,91.20
2018-01-20T17:55:14.539Z,91.39
2018-01-20T17:56:45.620Z,91.20
2018-01-20T17:58:08.866Z,91.59
2018-01-20T17:59:35.991Z,91.71
2018-01-20T18:01:03.175Z,91.93
2018-01-20T18:02:34.240Z,92.17
2018-01-20T18:03:57.415Z,92.42
2018-01-20T18:05:28.260Z,92.53
2018-01-20T18:06:51.600Z,92.12
2018-01-20T18:08:18.782Z,91.81
2018-01-20T18:09:45.545Z,91.52
2018-01-20T18:11:16.397Z,91.06
2018-01-20T18:12:44.494Z,90.76
2018-01-20T18:14:06.502Z,90.61
2018-01-20T18:15:37.718Z,90.60
2018-01-20T18:17:00.989Z,90.49
2018-01-20T18:18:27.983Z,90.55
2018-01-20T18:19:59.064Z,90.46
2018-01-20T18:21:22.232Z,90.20
2018-01-20T18:22:49.301Z,89.94
2018-01-20T18:24:16.477Z,90.11
2018-01-20T18:25:47.783Z,90.16
2018-01-20T18:27:11.056Z,90.04
2018-01-20T18:28:45.989Z,89.47
2018-01-20T18:30:09.226Z,89.48
2018-01-20T18:31:32.023Z,89.95
2018-01-20T18:32:59.270Z,89.45
2018-01-20T18:34:26.378Z,89.61
2018-01-20T18:35:53.239Z,89.26
2018-01-20T18:37:20.301Z,88.84
2018-01-20T18:38:47.442Z,88.73
2018-01-20T18:40:14.604Z,89.11
2018-01-20T18:41:45.760Z,89.13
2018-01-20T18:43:12.566Z,88.93